Aérodrome :
LOGIN :

S'inscrire | Disclaimer

   EN    FR    IT 

 










Légende :    VFR   VFR Marginal   IFR   IFR Intensif   IFR Très Intensif
Visi : 
Plafond : 
>= 8 km
>= 3000ft
5 à 8 km
1000 à 3000 ft
1500m à 5 km
500 à 1000 ft
800 à 1500m
200 à 500 ft
< 800m
< 200 ft
Symboles :   Orages  Brouillard  Fortes neiges  Fortes précipitations  Vent > 20 kt
SIGMETs :   Divers  Orages  Givrage  Turbulence  Onde Orograph.  Cendres Volcan.







- Altitude de l'aérodrome : 142 ft
- Code IATA : ALC


LEAL - Alicante

DERNIER METAR :
  • 241100Z 07013KT CAVOK 22/16 Q1013 NOSIG

METARs EXPIRÉS :
  • 241030Z 07012KT CAVOK 21/15 Q1013 NOSIG
  • 241000Z 07014KT 9999 FEW040 21/15 Q1013 NOSIG
  • 240930Z 06014KT 9999 FEW040 20/16 Q1013 NOSIG
  • 240900Z 06014KT 9999 FEW025 20/16 Q1013 NOSIG
  • 240830Z 07014KT 9999 FEW025 21/15 Q1013 NOSIG

TAF TAF LEAL
Valide du 24 à 12h jusqu'au 25 à 12h UTC


241100Z 2412/2512 07020KT 9999 FEW020 TX25/2412Z TN14/2506Z
TEMPO 2412/2418 07020G31KT
PROB40
TEMPO 2413/2422 2000 TSRA FEW020CB
BECMG 2422/2424 32004KT
BECMG 2504/2506 03010KT
Pas de NOTAMs connus pour ce terrain.
1 SIGMET publié pour la FIR Barcelona (LECB) :
 
Orages noyés dans la masse
LECB SIGMET 3 VALID 241113/241500 LEVA
LECB BARCELONA FIR/UIR EMBD TS FCST WI N4108 W00034 - N4056 E00011 - N3827 W00037 - N3828 W00124 - N4108 W00034 TOP FL380 STNR NC=



MET'MAP, la Météo Aéronautique d'un coup d'oeil ! - Copyright ORBIFLY Décembre 2007 - Disclaimer

ORBIFLY MET'MAP TEAM :

Programmation & Développement : Alexandra Zaïnal
Conception & Développement : Baudouin d'Aumeries
Co-Programmation & Développement : Marc-Olivier Méhu
Soutien technique & logistique : Manuel Goepfert

Contact : metmap@orbifly.com




SOURCES & CREDITS :

   NOAA